Flight Track Log - Related Links

Times and Time Zones

All times are in EST time to prevent confusion due to time zone crossing. See the BJS339 flight status page for this flight to view local times or setup timezone preferences in your user account.

Time Position Orientation Groundspeed Altitude Reporting Facility
EST Latitude Longitude Course Direction KTS MPH feet Rate Location/Type
Wed 08:12:22 AM 41.1000 -73.7667 239° Southwest 194 223 4,500  Level New York TRACON
Wed 08:13:22 AM 41.0833 -73.8333 252° West 220 253 7,900 3,650 Climbing New York TRACON
Wed 08:14:22 AM 41.0500 -73.9167 242° Southwest 224 258 11,800 3,550 Climbing New York TRACON
Wed 08:15:22 AM 41.0167 -73.9833 236° Southwest 243 280 15,000 1,650 Climbing New York TRACON
Wed 08:16:22 AM 40.9667 -74.0833 237° Southwest 299 344 15,100 39 Climbing New York TRACON
Wed 08:17:00 AM 40.6350 -74.0583 239° Southwest  Level Estimated
Wed 08:17:54 AM 40.8825 -74.2100 229° Southwest 309 356 15,100  Level New York Center
Wed 08:18:54 AM 40.8300 -74.2953 231° Southwest 304 350 17,200 2,000 Climbing New York Center
Wed 08:19:54 AM 40.7772 -74.3856 232° Southwest 309 356 19,100 2,150 Climbing New York Center
Wed 08:20:54 AM 40.7244 -74.4731 232° Southwest 309 356 21,500 2,450 Climbing New York Center
Wed 08:21:54 AM 40.6694 -74.5606 230° Southwest 309 356 24,000 2,500 Climbing New York Center
Wed 08:22:54 AM 40.6144 -74.6531 232° Southwest 314 361 26,500 2,450 Climbing New York Center
Wed 08:23:54 AM 40.5594 -74.7403 230° Southwest 314 361 28,900 1,900 Climbing New York Center
Wed 08:24:54 AM 40.5064 -74.8325 233° Southwest 314 361 30,300 1,250 Climbing New York Center
Wed 08:25:54 AM 40.4511 -74.9219 231° Southwest 314 361 31,400 1,033 Climbing New York Center
Wed 08:26:56 AM 40.3894 -75.0164 229° Southwest 324 373 32,400 1,000 Climbing New York Center
Wed 08:28:06 AM 40.3081 -75.1311 227° Southwest 349 402 33,600 969 Climbing New York Center
Wed 08:29:06 AM 40.2419 -75.2250 227° Southwest 356 410 34,500 1,000 Climbing New York Center
Wed 08:30:06 AM 40.1761 -75.3158 227° Southwest 356 410 35,600 1,300 Climbing New York Center
Wed 08:31:06 AM 40.1164 -75.4014 228° Southwest 345 397 37,100 1,300 Climbing New York Center
Wed 08:32:06 AM 40.0592 -75.4817 227° Southwest 330 380 38,200 850 Climbing New York Center
Wed 08:33:06 AM 39.9994 -75.5617 226° Southwest 319 367 38,800 550 Climbing New York Center
Wed 08:34:06 AM 39.9464 -75.6394 228° Southwest 319 367 39,300 550 Climbing New York Center
Wed 08:35:06 AM 39.8886 -75.7219 228° Southwest 319 367 39,900 350 Climbing New York Center
Wed 08:36:06 AM 39.8372 -75.8075 232° Southwest 314 361 40,000 50 Climbing New York Center
Wed 08:37:06 AM 39.7811 -75.8953 230° Southwest 319 367 40,000  Level New York Center
Wed 08:38:49 AM 39.6856 -76.0472 231° Southwest 319 367 40,000  Level Washington Center
Wed 08:39:47 AM 39.6247 -76.1411 230° Southwest 329 379 40,000  Level Washington Center
Wed 08:40:48 AM 39.5681 -76.2322 231° Southwest 329 379 40,000  Level Washington Center
Wed 08:41:49 AM 39.5072 -76.3231 229° Southwest 335 386 40,000  Level Washington Center
Wed 08:42:50 AM 39.4547 -76.4033 230° Southwest 335 386 40,000  Level Washington Center
Wed 08:43:48 AM 39.3850 -76.5100 230° Southwest 330 380 40,000  Level Washington Center
Wed 08:44:47 AM 39.3344 -76.5869 230° Southwest 330 380 40,000  Level Washington Center
Wed 08:45:49 AM 39.2775 -76.6775 231° Southwest 330 380 40,000  Level Washington Center
Wed 08:46:49 AM 39.2203 -76.7678 231° Southwest 330 380 40,000  Level Washington Center
Wed 08:47:47 AM 39.1653 -76.8525 230° Southwest 325 374 40,000  Level Washington Center
Wed 08:48:48 AM 39.1100 -76.9397 231° Southwest 325 374 40,000  Level Washington Center
Wed 08:49:49 AM 39.0528 -77.0242 229° Southwest 325 374 40,000  Level Washington Center
Wed 08:50:50 AM 38.9853 -77.1031 222° Southwest 325 374 40,000  Level Washington Center
Wed 08:51:48 AM 38.9133 -77.1817 220° Southwest 325 374 40,000  Level Washington Center
Wed 08:52:49 AM 38.8456 -77.2603 222° Southwest 338 389 40,000  Level Washington Center
Wed 08:53:47 AM 38.7736 -77.3358 219° Southwest 338 389 40,000  Level Washington Center
Wed 08:54:48 AM 38.6953 -77.4189 220° Southwest 338 389 40,000  Level Washington Center
Wed 08:55:47 AM 38.6253 -77.4969 221° Southwest 338 389 40,000  Level Washington Center
Wed 08:56:47 AM 38.5553 -77.5722 220° Southwest 338 389 40,000  Level Washington Center
Wed 08:57:49 AM 38.4831 -77.6497 220° Southwest 338 389 40,000  Level Washington Center
Wed 08:58:50 AM 38.4128 -77.7275 221° Southwest 338 389 40,000  Level Washington Center
Wed 08:59:47 AM 38.3406 -77.8047 220° Southwest 338 389 40,000  Level Washington Center
Wed 09:00:50 AM 38.2725 -77.8794 221° Southwest 338 389 40,000  Level Washington Center
Wed 09:01:49 AM 38.2022 -77.9539 220° Southwest 338 389 40,000  Level Washington Center
Wed 09:02:49 AM 38.1319 -78.0283 220° Southwest 338 389 40,000  Level Washington Center
Wed 09:03:49 AM 38.0614 -78.1025 220° Southwest 338 389 40,000  Level Washington Center
Wed 09:04:47 AM 37.9911 -78.1739 219° Southwest 338 389 40,000  Level Washington Center
Wed 09:05:47 AM 37.9292 -78.2375 219° Southwest 332 382 40,000  Level Washington Center
Wed 09:06:48 AM 37.8567 -78.3114 219° Southwest 332 382 40,000  Level Washington Center
Wed 09:07:48 AM 37.7717 -78.3869 215° Southwest 341 392 40,000  Level Washington Center
Wed 09:08:48 AM 37.6947 -78.4603 217° Southwest 346 398 40,000  Level Washington Center
Wed 09:09:50 AM 37.6181 -78.5308 216° Southwest 346 398 40,000  Level Washington Center
Wed 09:10:48 AM 37.5433 -78.6014 217° Southwest 346 398 40,000  Level Washington Center
Wed 09:11:48 AM 37.4747 -78.6667 217° Southwest 346 398 40,000  Level Washington Center
Wed 09:12:48 AM 37.4000 -78.7342 216° Southwest 346 398 40,000  Level Washington Center
Wed 09:13:49 AM 37.3272 -78.8044 218° Southwest 346 398 40,000  Level Washington Center
Wed 09:14:50 AM 37.2525 -78.8717 216° Southwest 346 398 40,000  Level Washington Center
Wed 09:15:48 AM 37.1775 -78.9414 217° Southwest 346 398 40,000  Level Washington Center
Wed 09:16:48 AM 37.1025 -79.0086 216° Southwest 346 398 40,000  Level Washington Center
Wed 09:17:49 AM 37.0211 -79.0856 217° Southwest 346 398 40,000  Level Washington Center
Wed 09:18:48 AM 36.9481 -79.1525 216° Southwest 346 398 40,000  Level Washington Center
Wed 09:19:48 AM 36.8731 -79.2192 215° Southwest 346 398 40,000  Level Washington Center
Wed 09:20:48 AM 36.8000 -79.2856 216° Southwest 340 391 40,000  Level Washington Center
Wed 09:21:50 AM 36.7311 -79.3550 219° Southwest 340 391 40,000  Level Washington Center
Wed 09:22:48 AM 36.6647 -79.4139 215° Southwest 335 386 40,000  Level Washington Center
Wed 09:23:48 AM 36.5936 -79.4803 217° Southwest 335 386 40,000  Level Washington Center
Wed 09:25:39 AM 36.4456 -79.6100 215° Southwest 341 392 40,000  Level Atlanta Center
Wed 09:26:39 AM 36.3708 -79.6786 216° Southwest 346 398 40,000  Level Atlanta Center
Wed 09:27:39 AM 36.2961 -79.7469 216° Southwest 346 398 40,000  Level Atlanta Center
Wed 09:28:39 AM 36.2211 -79.8128 215° Southwest 346 398 40,000  Level Atlanta Center
Wed 09:29:39 AM 36.1544 -79.8728 216° Southwest 346 398 40,000  Level Atlanta Center
Wed 09:30:39 AM 36.0794 -79.9408 216° Southwest 346 398 40,000  Level Atlanta Center
Wed 09:31:39 AM 35.9939 -79.9992 209° Southwest 346 398 40,000  Level Atlanta Center
Wed 09:32:39 AM 35.8994 -80.0475 203° Southwest 357 411 40,000  Level Atlanta Center
Wed 09:33:39 AM 35.7969 -80.0986 202° Southwest 369 425 40,000  Level Atlanta Center
Wed 09:34:39 AM 35.7003 -80.1467 202° Southwest 369 425 40,000  Level Atlanta Center
Wed 09:35:39 AM 35.6039 -80.1947 202° Southwest 369 425 40,000  Level Atlanta Center
Wed 09:36:39 AM 35.5094 -80.2450 203° Southwest 369 425 40,000  Level Atlanta Center
Wed 09:37:39 AM 35.4128 -80.2928 202° Southwest 369 425 40,000  Level Atlanta Center
Wed 09:38:39 AM 35.3183 -80.3378 201° Southwest 369 425 40,000  Level Atlanta Center
Wed 09:39:39 AM 35.2217 -80.3881 203° Southwest 369 425 40,000  Level Atlanta Center
Wed 09:41:13 AM 35.0936 -80.4522 202° Southwest 352 405 40,000  Level Jacksonville Center
Wed 09:42:13 AM 34.9903 -80.5006 201° Southwest 357 411 40,000  Level Jacksonville Center
Wed 09:43:13 AM 34.8994 -80.5436 201° Southwest 357 411 40,000  Level Jacksonville Center
Wed 09:44:13 AM 34.8044 -80.5969 205° Southwest 353 406 40,000  Level Jacksonville Center
Wed 09:45:13 AM 34.7092 -80.6422 201° Southwest 348 400 40,000  Level Jacksonville Center
Wed 09:46:13 AM 34.6183 -80.6875 202° Southwest 353 406 40,000  Level Jacksonville Center
Wed 09:47:13 AM 34.5272 -80.7328 202° Southwest 368 423 40,000  Level Jacksonville Center
Wed 09:48:13 AM 34.4342 -80.7778 202° Southwest 368 423 40,000  Level Jacksonville Center
Wed 09:49:13 AM 34.3469 -80.8028 193° South 358 412 40,000  Level Jacksonville Center
Wed 09:50:13 AM 34.2539 -80.8603 207° Southwest 363 418 40,000  Level Jacksonville Center
Wed 09:51:13 AM 34.1608 -80.9050 202° Southwest 358 412 40,000  Level Jacksonville Center
Wed 09:52:13 AM 34.0678 -80.9497 202° Southwest 358 412 40,000  Level Jacksonville Center
Wed 09:53:13 AM 33.9744 -80.9944 202° Southwest 364 419 40,000  Level Jacksonville Center
Wed 09:54:13 AM 33.8769 -81.0389 201° Southwest 370 426 40,000  Level Jacksonville Center
Wed 09:55:13 AM 33.7794 -81.0811 200° South 375 432 40,000  Level Jacksonville Center
Wed 09:56:13 AM 33.6822 -81.1306 203° Southwest 375 432 40,000  Level Jacksonville Center
Wed 09:57:13 AM 33.5847 -81.1747 201° Southwest 375 432 40,000  Level Jacksonville Center
Wed 09:58:13 AM 33.4894 -81.2214 202° Southwest 375 432 40,000  Level Jacksonville Center
Wed 09:59:13 AM 33.3939 -81.2631 200° South 375 432 40,000  Level Jacksonville Center
Wed 10:00:13 AM 33.2986 -81.3094 202° Southwest 370 426 40,000  Level Jacksonville Center
Wed 10:01:13 AM 33.2031 -81.3533 201° Southwest 370 426 40,000  Level Jacksonville Center
Wed 10:02:13 AM 33.1056 -81.3972 201° Southwest 370 426 40,000  Level Jacksonville Center
Wed 10:03:13 AM 33.0100 -81.4408 201° Southwest 370 426 40,000  Level Jacksonville Center
Wed 10:04:13 AM 32.9122 -81.4869 202° Southwest 375 432 40,000  Level Jacksonville Center
Wed 10:05:13 AM 32.8147 -81.5306 201° Southwest 375 432 40,000  Level Jacksonville Center
Wed 10:06:13 AM 32.7169 -81.5742 201° Southwest 375 432 40,000  Level Jacksonville Center
Wed 10:07:13 AM 32.6111 -81.6225 201° Southwest 375 432 40,000  Level Jacksonville Center
Wed 10:08:13 AM 32.5197 -81.6583 198° South 381 438 40,000  Level Jacksonville Center
Wed 10:09:13 AM 32.4031 -81.6869 192° South 386 444 40,000  Level Jacksonville Center
Wed 10:10:13 AM 32.2989 -81.7153 193° South 393 452 40,000  Level Jacksonville Center
Wed 10:11:13 AM 32.2031 -81.7361 190° South 393 452 40,000  Level Jacksonville Center
Wed 10:12:13 AM 32.0864 -81.7647 192° South 393 452 40,000  Level Jacksonville Center
Wed 10:13:13 AM 31.9906 -81.7903 193° South 393 452 40,000  Level Jacksonville Center
Wed 10:14:13 AM 31.8758 -81.8186 192° South 393 452 40,000  Level Jacksonville Center
Wed 10:15:13 AM 31.7697 -81.8417 190° South 393 452 40,000 -400 Level Jacksonville Center
Wed 10:16:13 AM 31.6758 -81.8647 192° South 393 452 39,200 -950 Descending Jacksonville Center
Wed 10:17:13 AM 31.5572 -81.8931 192° South 393 452 38,100 -600 Descending Jacksonville Center
Wed 10:18:13 AM 31.4508 -81.9208 193° South 393 452 38,000 -350 Descending Jacksonville Center
Wed 10:19:13 AM 31.3403 -81.9464 191° South 393 452 37,400 -500 Descending Jacksonville Center
Wed 10:20:13 AM 31.2278 -81.9742 192° South 403 464 37,000 -200 Descending Jacksonville Center
Wed 10:21:13 AM 31.1194 -81.9994 191° South 403 464 37,000  Level Jacksonville Center
Wed 10:22:13 AM 31.0089 -82.0272 192° South 408 470 37,000  Level Jacksonville Center
Wed 10:23:13 AM 30.9006 -82.0550 192° South 408 470 37,000  Level Jacksonville Center
Wed 10:24:13 AM 30.7900 -82.0800 191° South 413 475 37,000 -300 Level Jacksonville Center
Wed 10:25:13 AM 30.6775 -82.1075 192° South 413 475 36,400 -500 Descending Jacksonville Center
Wed 10:26:13 AM 30.5650 -82.1325 191° South 413 475 36,000 -200 Descending Jacksonville Center
Wed 10:27:13 AM 30.4522 -82.1528 189° South 408 470 36,000  Level Jacksonville Center
Wed 10:28:13 AM 30.3375 -82.1800 192° South 413 475 36,000  Level Jacksonville Center
Wed 10:29:13 AM 30.2250 -82.2050 191° South 418 481 36,000  Level Jacksonville Center
Wed 10:30:13 AM 30.1125 -82.2322 192° South 418 481 36,000 -400 Level Jacksonville Center
Wed 10:31:13 AM 29.9978 -82.2642 194° South 418 481 35,200 -1,550 Descending Jacksonville Center
Wed 10:32:13 AM 29.8850 -82.2914 192° South 418 481 32,900 -2,300 Descending Jacksonville Center
Wed 10:33:13 AM 29.7725 -82.3183 192° South 413 475 30,600 -2,300 Descending Jacksonville Center
Wed 10:34:13 AM 29.6744 -82.3381 190° South 408 470 28,300 -2,450 Descending Jacksonville Center
Wed 10:35:13 AM 29.5703 -82.3553 188° South 402 463 25,700 -1,800 Descending Jacksonville Center
Wed 10:36:13 AM 29.4636 -82.3464 176° South 385 443 24,700 -1,250 Descending Jacksonville Center
Wed 10:37:13 AM 29.3508 -82.3328 174° South 391 450 23,200 -1,800 Descending Jacksonville Center
Wed 10:38:13 AM 29.2422 -82.3167 173° South 401 461 21,100 -1,950 Descending Jacksonville Center
Wed 10:39:13 AM 29.1336 -82.3053 175° South 401 461 19,300 -1,600 Descending Jacksonville Center
Wed 10:40:13 AM 29.0314 -82.2942 175° South 391 450 17,900 -1,650 Descending Jacksonville Center
Wed 10:41:13 AM 28.9186 -82.2783 173° South 379 436 16,000 -1,800 Descending Jacksonville Center
Wed 10:42:13 AM 28.8161 -82.2647 173° South 379 436 14,300 -1,006 Descending Jacksonville Center
Wed 10:44:12 AM 28.6167 -82.2500 176° South 346 398 13,000 -555 Descending Tampa TRACON
Wed 10:45:06 AM 28.5333 -82.2500 180° South 354 407 12,700 -667 Descending Tampa TRACON
Wed 10:46:00 AM 28.4333 -82.2500 180° South 352 405 11,800 -810 Descending Tampa TRACON
Wed 10:47:12 AM 28.3333 -82.2667 188° South 329 379 11,000 -500 Descending Tampa TRACON
Wed 10:48:12 AM 28.2667 -82.3333 221° Southwest 316 364 10,700 -611 Descending Tampa TRACON
Wed 10:49:00 AM 28.2167 -82.3833 221° Southwest 272 313 9,900 -1,222 Descending Tampa TRACON
Wed 10:50:00 AM 28.1500 -82.4167 204° Southwest 265 305 8,500 -1,429 Descending Tampa TRACON
Wed 10:51:06 AM 28.0667 -82.4167 180° South 266 306 6,900 -1,350 Descending Tampa TRACON
Wed 10:52:00 AM 28.0167 -82.4167 180° South 250 288 5,800 -1,000 Descending Tampa TRACON
Wed 10:53:00 AM 27.9333 -82.4167 180° South 245 282 5,000 -600 Descending Tampa TRACON
Wed 10:54:00 AM 27.8833 -82.4167 180° South 169 194 4,600 -526 Descending Tampa TRACON
Wed 10:54:54 AM 27.8500 -82.4167 180° South 170 196 4,000 -737 Descending Tampa TRACON
Wed 10:55:54 AM 27.8000 -82.4167 180° South 172 198 3,200 -700 Descending Tampa TRACON
Wed 10:56:54 AM 27.7833 -82.4667 249° West 201 231 2,600 -300 Descending Tampa TRACON
Wed 10:57:54 AM 27.8000 -82.5333 286° West 209 241 2,600 -100 Level Tampa TRACON
Wed 10:58:54 AM 27.8500 -82.5500 344° North 181 208 2,400 -476 Descending Tampa TRACON
Wed 11:00:00 AM 27.8833 -82.5500 360° North 114 131 1,600 -667 Descending Tampa TRACON
Wed 11:01:00 AM 27.9167 -82.5500 360° North 123 142 1,000 -600 Descending Tampa TRACON
Wed 11:02:00 AM 27.9500 -82.5500 360° North 115 132 400 -600 Descending Tampa TRACON

Login

Don't have an account? Register now (free) for customized features, flight alerts, and more!